Time;durP1;ratioP1;P1;durP2;ratioP2;P2;SDS_P1;SDS_P2;PMS_P1;PMS_P2;Temp;Humidity;BMP_temperature;BMP_pressure;BME280_temperature;BME280_humidity;BME280_pressure;Samples;Min_cycle;Max_cycle;Signal;HPM_P1;HPM_P2
2024/01/01 00:01:45;;;;;;;60.40;34.78;;;;;;;;;;4816781;29;20061;-71
2024/01/01 00:04:11;;;;;;;42.67;26.77;;;;;;;;;;4806730;29;20088;-72
2024/01/01 00:06:38;;;;;;;49.45;29.13;;;;;;;;;;4794823;29;20126;-72
2024/01/01 00:09:04;;;;;;;77.70;50.63;;;;;;;;;;4811880;29;20119;-71
2024/01/01 00:11:31;;;;;;;57.03;35.35;;;;;;;;;;4818389;29;20755;-71
2024/01/01 00:13:57;;;;;;;30.13;16.92;;;;;;;;;;4816754;29;20050;-71
2024/01/01 00:16:24;;;;;;;25.83;14.40;;;;;;;;;;4816312;29;20145;-71
2024/01/01 00:18:51;;;;;;;23.92;15.00;;;;;;;;;;4810295;29;20055;-72
2024/01/01 00:21:17;;;;;;;25.17;13.02;;;;;;;;;;4787799;29;20054;-72
2024/01/01 00:23:44;;;;;;;42.97;25.13;;;;;;;;;;4796420;29;20116;-72
2024/01/01 00:26:10;;;;;;;66.40;44.67;;;;;;;;;;4805936;29;20058;-72
2024/01/01 00:28:36;;;;;;;43.83;27.20;;;;;;;;;;4807936;29;20069;-71
2024/01/01 00:31:03;;;;;;;33.60;17.27;;;;;;;;;;4803335;29;20061;-72
2024/01/01 00:33:29;;;;;;;21.63;11.30;;;;;;;;;;4803032;29;20081;-72
2024/01/01 00:35:56;;;;;;;20.00;8.90;;;;;;;;;;4814564;29;20061;-71
2024/01/01 00:38:22;;;;;;;13.65;6.60;;;;;;;;;;4812751;29;20079;-71
2024/01/01 00:40:49;;;;;;;15.52;5.93;;;;;;;;;;4801833;29;20077;-71
2024/01/01 00:43:15;;;;;;;13.13;6.38;;;;;;;;;;4803333;29;20532;-73
2024/01/01 00:45:42;;;;;;;12.13;6.10;;;;;;;;;;4811071;29;20054;-72
2024/01/01 00:48:15;;;;;;;13.00;4.80;;;;;;;;;;4805973;29;20520;-72
2024/01/01 00:50:42;;;;;;;12.90;3.97;;;;;;;;;;4810552;29;20081;-71
2024/01/01 00:53:08;;;;;;;10.35;3.75;;;;;;;;;;4812145;29;20078;-72
2024/01/01 00:55:35;;;;;;;10.23;3.80;;;;;;;;;;4800353;29;20107;-71
2024/01/01 00:58:01;;;;;;;6.68;2.80;;;;;;;;;;4795299;29;20043;-72
2024/01/01 01:00:28;;;;;;;10.40;2.70;;;;;;;;;;4809911;29;20111;-71
2024/01/01 01:02:55;;;;;;;4.10;1.45;;;;;;;;;;4803654;29;20051;-71
2024/01/01 01:05:22;;;;;;;8.55;1.75;;;;;;;;;;4806329;29;20153;-72
2024/01/01 01:07:49;;;;;;;5.90;2.35;;;;;;;;;;4802680;29;20069;-72
2024/01/01 01:10:15;;;;;;;7.22;2.25;;;;;;;;;;4814112;29;20552;-71
2024/01/01 01:12:42;;;;;;;6.93;2.95;;;;;;;;;;4806590;29;20507;-71
2024/01/01 01:15:08;;;;;;;3.22;1.33;;;;;;;;;;4800438;29;20062;-71
2024/01/01 01:17:35;;;;;;;3.45;1.50;;;;;;;;;;4815120;29;20065;-71
2024/01/01 01:20:01;;;;;;;3.20;1.60;;;;;;;;;;4806087;29;20046;-71
2024/01/01 01:22:29;;;;;;;5.65;1.98;;;;;;;;;;4811482;29;20065;-71
2024/01/01 01:24:56;;;;;;;4.38;1.45;;;;;;;;;;4805120;29;20051;-73
2024/01/01 01:27:22;;;;;;;5.90;2.10;;;;;;;;;;4801775;29;20104;-74
2024/01/01 01:29:49;;;;;;;4.68;2.25;;;;;;;;;;4812094;29;20483;-73
2024/01/01 01:32:15;;;;;;;9.93;2.05;;;;;;;;;;4793102;29;20051;-73
2024/01/01 01:34:42;;;;;;;5.47;1.98;;;;;;;;;;4808473;29;20066;-74
2024/01/01 01:37:08;;;;;;;7.70;2.03;;;;;;;;;;4811728;29;20369;-75
2024/01/01 01:39:35;;;;;;;7.43;1.98;;;;;;;;;;4813904;29;20168;-75
2024/01/01 01:42:01;;;;;;;4.03;2.00;;;;;;;;;;4802195;29;20090;-74
2024/01/01 01:44:28;;;;;;;5.18;1.85;;;;;;;;;;4800574;29;20054;-75
2024/01/01 01:46:55;;;;;;;6.47;2.15;;;;;;;;;;4809398;29;20476;-75
2024/01/01 01:49:22;;;;;;;5.65;2.22;;;;;;;;;;4802978;29;20199;-75
2024/01/01 01:51:49;;;;;;;6.93;2.35;;;;;;;;;;4816737;29;20086;-74
2024/01/01 01:54:16;;;;;;;4.65;1.83;;;;;;;;;;4812276;29;20050;-75
2024/01/01 01:56:43;;;;;;;7.47;2.60;;;;;;;;;;4803234;29;20058;-75
2024/01/01 01:59:09;;;;;;;6.68;2.42;;;;;;;;;;4816125;29;20065;-75
2024/01/01 02:01:36;;;;;;;13.27;3.25;;;;;;;;;;4802333;29;20106;-75
2024/01/01 02:04:02;;;;;;;7.28;2.40;;;;;;;;;;4813902;29;20081;-75
2024/01/01 02:06:29;;;;;;;12.25;3.38;;;;;;;;;;4803176;29;20061;-75
2024/01/01 02:08:59;;;;;;;7.35;2.75;;;;;;;;;;4813066;29;20436;-74
2024/01/01 02:11:25;;;;;;;6.35;2.83;;;;;;;;;;4818974;29;20480;-75
2024/01/01 02:13:52;;;;;;;8.48;2.72;;;;;;;;;;4806124;29;20058;-75
2024/01/01 02:16:20;;;;;;;8.70;2.53;;;;;;;;;;4817508;29;20456;-77
2024/01/01 02:18:47;;;;;;;9.73;2.75;;;;;;;;;;4807952;29;20438;-74
2024/01/01 02:21:13;;;;;;;8.27;2.60;;;;;;;;;;4812166;29;20046;-75
2024/01/01 02:23:39;;;;;;;6.30;2.20;;;;;;;;;;4808368;29;20074;-74
2024/01/01 02:26:07;;;;;;;9.43;2.30;;;;;;;;;;4809753;29;20047;-75
2024/01/01 02:28:34;;;;;;;5.55;1.77;;;;;;;;;;4807807;29;20460;-75
2024/01/01 02:31:00;;;;;;;4.30;2.00;;;;;;;;;;4809619;29;20063;-75
2024/01/01 02:33:27;;;;;;;10.40;2.38;;;;;;;;;;4812999;29;20062;-74
2024/01/01 02:35:53;;;;;;;8.02;2.05;;;;;;;;;;4806448;29;20523;-75
2024/01/01 02:38:20;;;;;;;9.35;2.17;;;;;;;;;;4807672;29;20062;-75
2024/01/01 02:40:46;;;;;;;7.97;2.20;;;;;;;;;;4814655;29;20065;-75
2024/01/01 02:43:13;;;;;;;6.78;2.00;;;;;;;;;;4810447;29;20591;-75
2024/01/01 02:45:39;;;;;;;9.05;2.63;;;;;;;;;;4811930;29;20055;-75
2024/01/01 02:48:06;;;;;;;16.98;2.63;;;;;;;;;;4800803;29;20054;-74
2024/01/01 02:50:33;;;;;;;8.85;2.53;;;;;;;;;;4805425;29;20057;-75
2024/01/01 02:52:59;;;;;;;8.15;2.05;;;;;;;;;;4808445;29;20560;-74
2024/01/01 02:55:26;;;;;;;9.05;2.00;;;;;;;;;;4802668;29;20465;-75
2024/01/01 02:57:52;;;;;;;9.27;2.05;;;;;;;;;;4801244;29;20733;-75
2024/01/01 03:00:19;;;;;;;7.82;1.77;;;;;;;;;;4791150;29;20157;-74
2024/01/01 03:02:45;;;;;;;10.57;2.25;;;;;;;;;;4800688;29;20071;-74
2024/01/01 03:05:12;;;;;;;6.72;1.77;;;;;;;;;;4800183;29;20604;-74
2024/01/01 03:07:39;;;;;;;7.60;1.75;;;;;;;;;;4806534;29;20494;-74
2024/01/01 03:10:05;;;;;;;14.40;2.70;;;;;;;;;;4803148;29;20112;-72
2024/01/01 03:12:32;;;;;;;8.82;1.65;;;;;;;;;;4809642;29;20058;-74
2024/01/01 03:14:59;;;;;;;8.50;1.75;;;;;;;;;;4809959;29;20154;-74
2024/01/01 03:17:26;;;;;;;5.47;1.92;;;;;;;;;;4812631;29;20122;-73
2024/01/01 03:19:52;;;;;;;6.32;1.42;;;;;;;;;;4819001;29;20049;-73
2024/01/01 03:22:19;;;;;;;10.50;2.45;;;;;;;;;;4816351;29;20062;-73
2024/01/01 03:24:45;;;;;;;19.92;4.80;;;;;;;;;;4815271;29;20058;-73
2024/01/01 03:27:12;;;;;;;5.55;1.95;;;;;;;;;;4804195;29;20508;-73
2024/01/01 03:29:38;;;;;;;9.27;1.77;;;;;;;;;;4800691;29;20062;-73
2024/01/01 03:32:05;;;;;;;6.47;1.58;;;;;;;;;;4805884;29;20121;-74
2024/01/01 03:34:33;;;;;;;7.93;1.80;;;;;;;;;;4812396;29;20093;-74
2024/01/01 03:36:59;;;;;;;11.00;2.05;;;;;;;;;;4798338;29;20061;-73
2024/01/01 03:39:26;;;;;;;10.40;2.03;;;;;;;;;;4812337;29;20057;-73
2024/01/01 03:41:52;;;;;;;6.28;1.83;;;;;;;;;;4803882;29;20629;-73
2024/01/01 03:44:19;;;;;;;11.85;2.00;;;;;;;;;;4795041;29;20327;-73
2024/01/01 03:46:45;;;;;;;13.13;2.15;;;;;;;;;;4793949;29;20555;-73
2024/01/01 03:49:12;;;;;;;8.85;1.60;;;;;;;;;;4814246;29;20056;-73
2024/01/01 03:51:38;;;;;;;10.98;1.85;;;;;;;;;;4814536;29;20046;-73
2024/01/01 03:54:05;;;;;;;9.50;2.08;;;;;;;;;;4809008;29;20062;-73
2024/01/01 03:56:31;;;;;;;13.35;2.53;;;;;;;;;;4808939;29;20059;-73
2024/01/01 03:58:58;;;;;;;10.00;1.83;;;;;;;;;;4808659;29;20062;-73
2024/01/01 04:01:26;;;;;;;9.35;1.92;;;;;;;;;;4797083;29;20419;-73
2024/01/01 04:03:55;;;;;;;6.40;1.42;;;;;;;;;;4809882;29;20062;-74
2024/01/01 04:06:21;;;;;;;10.63;1.80;;;;;;;;;;4797956;29;20119;-73
2024/01/01 04:08:48;;;;;;;11.30;1.73;;;;;;;;;;4811306;29;20077;-73
2024/01/01 04:11:14;;;;;;;6.07;1.13;;;;;;;;;;4803096;29;20542;-73
2024/01/01 04:13:42;;;;;;;12.02;1.58;;;;;;;;;;4804124;29;20086;-72
2024/01/01 04:16:08;;;;;;;8.53;1.60;;;;;;;;;;4806804;29;20550;-73
2024/01/01 04:18:35;;;;;;;12.32;2.05;;;;;;;;;;4814428;29;20090;-73
2024/01/01 04:21:01;;;;;;;8.82;1.90;;;;;;;;;;4812257;29;20555;-73
2024/01/01 04:23:28;;;;;;;14.00;1.83;;;;;;;;;;4789245;29;20112;-74
2024/01/01 04:25:54;;;;;;;14.50;2.13;;;;;;;;;;4811329;29;20147;-74
2024/01/01 04:28:20;;;;;;;9.65;1.77;;;;;;;;;;4802008;29;20053;-74
2024/01/01 04:30:47;;;;;;;11.10;2.35;;;;;;;;;;4813587;29;20058;-73
2024/01/01 04:33:13;;;;;;;13.80;1.98;;;;;;;;;;4811465;29;20521;-73
2024/01/01 04:35:40;;;;;;;9.30;1.83;;;;;;;;;;4805060;29;20119;-73
2024/01/01 04:38:06;;;;;;;12.00;1.83;;;;;;;;;;4804764;29;20054;-72
2024/01/01 04:40:34;;;;;;;9.73;1.50;;;;;;;;;;4809073;29;20489;-72
2024/01/01 04:43:00;;;;;;;9.02;1.60;;;;;;;;;;4814578;29;20377;-72
2024/01/01 04:45:26;;;;;;;7.70;1.73;;;;;;;;;;4811726;29;20058;-75
2024/01/01 04:47:53;;;;;;;9.57;1.60;;;;;;;;;;4802449;29;20144;-72
2024/01/01 04:50:19;;;;;;;6.95;1.33;;;;;;;;;;4798100;29;20083;-72
2024/01/01 04:52:46;;;;;;;9.80;1.70;;;;;;;;;;4806762;29;20062;-73
2024/01/01 04:55:12;;;;;;;11.40;2.17;;;;;;;;;;4815128;29;20061;-72
2024/01/01 04:57:39;;;;;;;9.27;1.55;;;;;;;;;;4808648;29;20269;-73
2024/01/01 05:00:06;;;;;;;6.95;1.23;;;;;;;;;;4797213;29;20576;-73
2024/01/01 05:02:32;;;;;;;14.43;2.38;;;;;;;;;;4807357;29;20556;-72
2024/01/01 05:04:59;;;;;;;10.45;1.63;;;;;;;;;;4802840;29;20612;-71
2024/01/01 05:07:25;;;;;;;7.88;1.42;;;;;;;;;;4812827;29;20412;-71
2024/01/01 05:09:52;;;;;;;9.45;1.40;;;;;;;;;;4804840;29;20785;-72
2024/01/01 05:12:18;;;;;;;6.78;1.35;;;;;;;;;;4814635;29;20062;-70
2024/01/01 05:14:45;;;;;;;5.13;1.20;;;;;;;;;;4810993;29;20479;-71
2024/01/01 05:17:11;;;;;;;12.40;1.90;;;;;;;;;;4795816;29;20488;-71
2024/01/01 05:19:37;;;;;;;15.20;1.80;;;;;;;;;;4810865;29;20130;-71
2024/01/01 05:22:04;;;;;;;8.77;1.35;;;;;;;;;;4807711;29;20472;-71
2024/01/01 05:24:31;;;;;;;8.27;1.50;;;;;;;;;;4808111;29;20129;-71
2024/01/01 05:26:57;;;;;;;7.60;1.55;;;;;;;;;;4808521;29;20396;-74
2024/01/01 05:29:23;;;;;;;7.32;1.25;;;;;;;;;;4803345;29;20164;-72
2024/01/01 05:31:50;;;;;;;10.75;1.77;;;;;;;;;;4816263;29;20432;-72
2024/01/01 05:34:16;;;;;;;11.52;2.00;;;;;;;;;;4810928;29;20046;-72
2024/01/01 05:36:43;;;;;;;11.60;2.60;;;;;;;;;;4816823;29;20150;-71
2024/01/01 05:39:12;;;;;;;8.43;2.08;;;;;;;;;;4811902;29;20124;-71
2024/01/01 05:41:39;;;;;;;8.45;1.42;;;;;;;;;;4797892;29;20097;-71
2024/01/01 05:44:05;;;;;;;11.70;1.50;;;;;;;;;;4811294;29;20660;-71
2024/01/01 05:46:32;;;;;;;13.65;2.08;;;;;;;;;;4795739;29;20055;-72
2024/01/01 05:48:58;;;;;;;7.90;1.92;;;;;;;;;;4804336;29;20148;-72
2024/01/01 05:51:25;;;;;;;9.43;1.65;;;;;;;;;;4796664;29;20176;-72
2024/01/01 05:53:51;;;;;;;9.45;1.50;;;;;;;;;;4806491;29;20070;-71
2024/01/01 05:56:18;;;;;;;7.78;1.48;;;;;;;;;;4806693;29;20131;-72
2024/01/01 05:58:44;;;;;;;9.88;1.92;;;;;;;;;;4801469;29;20089;-72
2024/01/01 06:01:11;;;;;;;9.73;1.67;;;;;;;;;;4801094;29;20089;-72
2024/01/01 06:03:37;;;;;;;11.55;1.80;;;;;;;;;;4807379;29;20060;-72
2024/01/01 06:06:07;;;;;;;12.75;1.92;;;;;;;;;;4809813;29;20046;-72
2024/01/01 06:08:33;;;;;;;8.88;1.80;;;;;;;;;;4799741;29;20441;-72
2024/01/01 06:11:00;;;;;;;11.68;1.90;;;;;;;;;;4802325;29;20614;-72
2024/01/01 06:13:26;;;;;;;10.65;2.03;;;;;;;;;;4779601;29;20054;-71
2024/01/01 06:15:53;;;;;;;12.05;1.77;;;;;;;;;;4802471;29;20074;-73
2024/01/01 06:18:19;;;;;;;8.45;1.58;;;;;;;;;;4797852;29;20173;-73
2024/01/01 06:20:46;;;;;;;13.80;2.67;;;;;;;;;;4793672;29;20063;-73
2024/01/01 06:23:12;;;;;;;5.90;1.45;;;;;;;;;;4803973;29;20670;-73
2024/01/01 06:25:38;;;;;;;10.35;1.90;;;;;;;;;;4812854;29;20061;-73
2024/01/01 06:28:05;;;;;;;8.43;1.60;;;;;;;;;;4784897;29;20054;-73
2024/01/01 06:30:34;;;;;;;13.20;1.77;;;;;;;;;;4814398;29;20054;-73
2024/01/01 06:33:03;;;;;;;;;;;;;;;;;;4799650;29;20054;-73
2024/01/01 06:35:30;;;;;;;9.27;1.85;;;;;;;;;;4816316;29;20031;-73
2024/01/01 06:37:57;;;;;;;10.07;1.63;;;;;;;;;;4811699;29;20504;-73
2024/01/01 06:40:24;;;;;;;9.80;1.80;;;;;;;;;;4808423;29;20050;-73
2024/01/01 06:42:50;;;;;;;8.77;2.10;;;;;;;;;;4814054;29;20754;-73
2024/01/01 06:45:17;;;;;;;11.40;1.70;;;;;;;;;;4810072;29;20142;-72
2024/01/01 06:47:43;;;;;;;10.60;2.28;;;;;;;;;;4815137;29;20130;-73
2024/01/01 06:50:10;;;;;;;8.63;1.60;;;;;;;;;;4809875;29;20060;-72
2024/01/01 06:52:37;;;;;;;11.40;1.65;;;;;;;;;;4811510;29;20051;-73
2024/01/01 06:55:03;;;;;;;6.95;1.58;;;;;;;;;;4803222;29;20066;-73
2024/01/01 06:57:30;;;;;;;8.20;1.40;;;;;;;;;;4809954;29;20058;-72
2024/01/01 06:59:56;;;;;;;9.82;1.73;;;;;;;;;;4814326;29;20141;-73
2024/01/01 07:02:22;;;;;;;11.07;1.83;;;;;;;;;;4809851;29;20058;-74
2024/01/01 07:04:49;;;;;;;9.10;1.63;;;;;;;;;;4812941;29;20063;-73
2024/01/01 07:07:16;;;;;;;8.23;1.90;;;;;;;;;;4811678;29;20043;-73
2024/01/01 07:09:42;;;;;;;8.27;1.58;;;;;;;;;;4801159;29;20079;-73
2024/01/01 07:12:27;;;;;;;9.35;2.15;;;;;;;;;;4815086;29;20042;-74
2024/01/01 07:14:53;;;;;;;7.97;1.88;;;;;;;;;;4807703;29;20111;-73
2024/01/01 07:17:20;;;;;;;6.18;1.50;;;;;;;;;;4815498;29;20062;-73
2024/01/01 07:19:47;;;;;;;9.93;1.92;;;;;;;;;;4807362;29;20054;-73
2024/01/01 07:22:13;;;;;;;10.60;1.92;;;;;;;;;;4806427;29;20489;-73
2024/01/01 07:24:40;;;;;;;10.27;1.80;;;;;;;;;;4813624;29;20054;-71
2024/01/01 07:27:06;;;;;;;7.65;1.67;;;;;;;;;;4799116;29;20055;-71
2024/01/01 07:29:32;;;;;;;6.82;1.25;;;;;;;;;;4814000;29;20103;-72
2024/01/01 07:31:59;;;;;;;10.57;2.17;;;;;;;;;;4811658;29;20166;-72
2024/01/01 07:34:26;;;;;;;10.60;1.98;;;;;;;;;;4809969;29;20100;-74
2024/01/01 07:36:54;;;;;;;8.85;2.50;;;;;;;;;;4805264;29;20226;-73
2024/01/01 07:39:21;;;;;;;8.63;1.95;;;;;;;;;;4800290;29;20090;-72
2024/01/01 07:41:47;;;;;;;6.00;1.95;;;;;;;;;;4812273;29;20555;-73
2024/01/01 07:44:14;;;;;;;9.93;1.92;;;;;;;;;;4789188;29;20128;-74
2024/01/01 07:46:41;;;;;;;8.65;1.90;;;;;;;;;;4801088;29;20070;-72
2024/01/01 07:49:08;;;;;;;10.60;2.28;;;;;;;;;;4796628;29;20051;-73
2024/01/01 07:51:34;;;;;;;9.85;1.83;;;;;;;;;;4802071;29;20082;-73
2024/01/01 07:54:01;;;;;;;8.38;1.95;;;;;;;;;;4799414;29;20059;-72
2024/01/01 07:56:27;;;;;;;8.35;2.38;;;;;;;;;;4803827;29;20553;-72
2024/01/01 07:58:55;;;;;;;11.07;2.30;;;;;;;;;;4807162;29;20050;-72
2024/01/01 08:01:21;;;;;;;10.02;2.17;;;;;;;;;;4796394;29;20058;-72
2024/01/01 08:03:48;;;;;;;8.20;2.50;;;;;;;;;;4803237;29;20051;-72
2024/01/01 08:06:14;;;;;;;11.95;3.00;;;;;;;;;;4803306;29;20115;-73
2024/01/01 08:08:41;;;;;;;10.05;3.10;;;;;;;;;;4798325;29;20051;-73
2024/01/01 08:11:07;;;;;;;11.07;2.33;;;;;;;;;;4803506;29;20094;-73
2024/01/01 08:13:33;;;;;;;11.38;2.30;;;;;;;;;;4793221;29;20405;-73
2024/01/01 08:16:00;;;;;;;11.55;2.13;;;;;;;;;;4782711;29;20063;-73
2024/01/01 08:18:26;;;;;;;7.55;1.88;;;;;;;;;;4810431;29;20107;-73
2024/01/01 08:20:53;;;;;;;7.90;2.20;;;;;;;;;;4787755;29;20508;-73
2024/01/01 08:23:20;;;;;;;11.48;2.03;;;;;;;;;;4820287;29;20058;-74
2024/01/01 08:25:47;;;;;;;9.00;2.05;;;;;;;;;;4806081;29;20476;-73
2024/01/01 08:28:16;;;;;;;6.55;1.88;;;;;;;;;;4813740;29;20047;-73
2024/01/01 08:30:43;;;;;;;6.70;1.63;;;;;;;;;;4792770;29;20108;-73
2024/01/01 08:33:09;;;;;;;9.23;2.03;;;;;;;;;;4815775;29;20116;-74
2024/01/01 08:35:36;;;;;;;8.60;2.72;;;;;;;;;;4812578;29;20465;-71
2024/01/01 08:38:03;;;;;;;12.13;2.63;;;;;;;;;;4809305;29;20130;-72
2024/01/01 08:40:30;;;;;;;11.00;2.03;;;;;;;;;;4794135;29;20101;-72
2024/01/01 08:42:56;;;;;;;8.35;2.05;;;;;;;;;;4806081;29;20051;-70
2024/01/01 08:45:23;;;;;;;8.43;1.70;;;;;;;;;;4810531;29;20054;-72
2024/01/01 08:47:49;;;;;;;11.32;2.20;;;;;;;;;;4814062;29;20066;-71
2024/01/01 08:50:17;;;;;;;10.63;2.35;;;;;;;;;;4811128;29;20061;-70
2024/01/01 08:52:44;;;;;;;9.15;2.20;;;;;;;;;;4814835;29;20082;-70
2024/01/01 08:55:11;;;;;;;12.30;2.70;;;;;;;;;;4795322;29;20050;-70
2024/01/01 08:57:38;;;;;;;11.20;2.08;;;;;;;;;;4814883;29;20063;-70
2024/01/01 09:00:05;;;;;;;12.85;2.13;;;;;;;;;;4794452;29;20496;-70
2024/01/01 09:02:31;;;;;;;12.48;2.60;;;;;;;;;;4811085;29;20058;-70
2024/01/01 09:04:58;;;;;;;11.38;2.67;;;;;;;;;;4814893;29;20138;-70
2024/01/01 09:07:24;;;;;;;10.82;2.30;;;;;;;;;;4790545;29;20154;-70
2024/01/01 09:09:50;;;;;;;11.50;2.53;;;;;;;;;;4811389;29;20458;-70
2024/01/01 09:12:17;;;;;;;8.57;2.53;;;;;;;;;;4812484;29;20054;-70
2024/01/01 09:14:43;;;;;;;7.43;2.20;;;;;;;;;;4812174;29;20047;-70
2024/01/01 09:17:10;;;;;;;8.55;2.38;;;;;;;;;;4812285;29;20404;-70
2024/01/01 09:19:37;;;;;;;8.93;2.15;;;;;;;;;;4802492;29;20684;-72
2024/01/01 09:22:04;;;;;;;10.05;2.90;;;;;;;;;;4807513;29;20046;-71
2024/01/01 09:24:30;;;;;;;8.55;2.50;;;;;;;;;;4810469;29;20104;-73
2024/01/01 09:26:58;;;;;;;11.18;2.85;;;;;;;;;;4809544;29;20086;-71
2024/01/01 09:29:25;;;;;;;9.18;2.25;;;;;;;;;;4804066;29;20471;-71
2024/01/01 09:31:52;;;;;;;8.68;2.53;;;;;;;;;;4815950;29;20054;-70
2024/01/01 09:34:18;;;;;;;11.80;3.03;;;;;;;;;;4809341;29;20059;-70
2024/01/01 09:36:45;;;;;;;8.57;3.17;;;;;;;;;;4789774;29;20108;-70
2024/01/01 09:39:25;;;;;;;9.48;2.17;;;;;;;;;;4816938;29;20398;-71
2024/01/01 09:41:52;;;;;;;10.13;2.40;;;;;;;;;;4810499;29;20058;-70
2024/01/01 09:44:18;;;;;;;8.73;2.05;;;;;;;;;;4798171;29;20418;-69
2024/01/01 09:46:46;;;;;;;11.57;2.67;;;;;;;;;;4786943;29;20059;-72
2024/01/01 09:49:12;;;;;;;7.75;2.38;;;;;;;;;;4802797;29;20067;-72
2024/01/01 09:51:39;;;;;;;10.48;2.67;;;;;;;;;;4798895;29;20055;-71
2024/01/01 09:54:07;;;;;;;10.50;2.42;;;;;;;;;;4806041;29;20111;-71
2024/01/01 09:56:33;;;;;;;6.47;2.00;;;;;;;;;;4811833;29;20090;-72
2024/01/01 09:59:01;;;;;;;9.95;1.98;;;;;;;;;;4788964;29;20138;-72
2024/01/01 10:01:30;;;;;;;9.43;2.10;;;;;;;;;;4811141;29;20920;-71
2024/01/01 10:04:06;;;;;;;6.75;1.70;;;;;;;;;;4805680;29;20130;-71
2024/01/01 10:06:36;;;;;;;12.27;3.30;;;;;;;;;;4804336;29;20098;-71
2024/01/01 10:09:09;;;;;;;14.02;2.70;;;;;;;;;;4807346;29;20089;-71
2024/01/01 10:11:41;;;;;;;10.45;2.17;;;;;;;;;;4798749;29;20401;-71
2024/01/01 10:14:08;;;;;;;10.48;2.22;;;;;;;;;;4806892;29;20166;-71
2024/01/01 10:16:35;;;;;;;9.35;2.00;;;;;;;;;;4786888;29;20058;-71
2024/01/01 10:19:02;;;;;;;7.57;1.58;;;;;;;;;;4808260;29;20127;-72
2024/01/01 10:21:29;;;;;;;24.45;2.15;;;;;;;;;;4806509;29;20073;-71
2024/01/01 10:23:56;;;;;;;6.95;1.98;;;;;;;;;;4812189;29;20137;-71
2024/01/01 10:26:28;;;;;;;5.90;1.65;;;;;;;;;;4806375;29;20141;-71
2024/01/01 10:28:55;;;;;;;6.72;2.13;;;;;;;;;;4806498;29;20294;-71
2024/01/01 10:31:21;;;;;;;6.45;1.40;;;;;;;;;;4816719;29;20058;-71
2024/01/01 10:33:48;;;;;;;5.80;1.98;;;;;;;;;;4820248;29;20124;-71
2024/01/01 10:36:16;;;;;;;9.15;1.65;;;;;;;;;;4809428;29;20062;-71
2024/01/01 10:38:43;;;;;;;9.27;1.83;;;;;;;;;;4815303;29;20065;-71
2024/01/01 10:41:10;;;;;;;7.47;2.03;;;;;;;;;;4794586;29;20738;-71
2024/01/01 10:43:40;;;;;;;12.77;2.28;;;;;;;;;;4810927;29;20088;-71
2024/01/01 10:46:07;;;;;;;8.10;1.63;;;;;;;;;;4807304;29;20050;-71
2024/01/01 10:48:35;;;;;;;9.23;1.83;;;;;;;;;;4811780;29;20062;-71
2024/01/01 10:51:05;;;;;;;4.90;1.75;;;;;;;;;;4814670;29;20526;-71
2024/01/01 10:53:50;;;;;;;6.65;1.55;;;;;;;;;;4806325;29;20157;-71
2024/01/01 10:56:16;;;;;;;5.90;2.10;;;;;;;;;;4809280;29;20492;-69
2024/01/01 10:58:47;;;;;;;7.05;1.73;;;;;;;;;;4813402;29;20504;-69
2024/01/01 11:01:15;;;;;;;6.45;1.95;;;;;;;;;;4814725;29;20412;-70
2024/01/01 11:03:46;;;;;;;9.00;2.25;;;;;;;;;;4808422;29;20054;-70
2024/01/01 11:06:24;;;;;;;9.30;2.65;;;;;;;;;;4813043;29;20132;-70
2024/01/01 11:08:51;;;;;;;;;;;;;;;;;;4804260;29;20465;-70
2024/01/01 11:11:21;;;;;;;8.13;2.25;;;;;;;;;;4801996;29;19925;-70
2024/01/01 11:13:47;;;;;;;9.35;2.00;;;;;;;;;;4803819;29;20117;-69
2024/01/01 11:16:14;;;;;;;6.45;2.10;;;;;;;;;;4804894;29;20051;-69
2024/01/01 11:18:43;;;;;;;6.75;2.13;;;;;;;;;;4813511;29;20058;-69
2024/01/01 11:21:32;;;;;;;8.82;2.50;;;;;;;;;;4807789;29;20054;-70
2024/01/01 11:24:01;;;;;;;8.00;2.70;;;;;;;;;;4821548;29;20058;-70
2024/01/01 11:26:47;;;;;;;;;;;;;;;;;;4802505;29;20555;-70
2024/01/01 11:29:17;;;;;;;9.20;2.05;;;;;;;;;;4806998;29;20427;-72
2024/01/01 11:31:43;;;;;;;8.07;1.88;;;;;;;;;;4815758;29;20469;-72
2024/01/01 11:34:14;;;;;;;11.25;2.22;;;;;;;;;;4809723;29;20090;-69
2024/01/01 11:36:52;;;;;;;6.50;1.73;;;;;;;;;;4814795;29;20054;-69
2024/01/01 11:39:24;;;;;;;7.07;1.52;;;;;;;;;;4804261;29;20058;-70
2024/01/01 11:41:50;;;;;;;4.47;1.50;;;;;;;;;;4812837;29;20058;-69
2024/01/01 11:44:23;;;;;;;8.45;1.75;;;;;;;;;;4801577;29;20054;-69
2024/01/01 11:46:51;;;;;;;4.90;1.50;;;;;;;;;;4792131;29;20144;-70
2024/01/01 11:49:18;;;;;;;5.80;1.67;;;;;;;;;;4802256;29;20137;-70
2024/01/01 11:51:49;;;;;;;7.13;1.90;;;;;;;;;;4803112;29;20690;-69
2024/01/01 11:54:15;;;;;;;10.70;2.55;;;;;;;;;;4816486;29;20413;-69
2024/01/01 11:56:45;;;;;;;11.30;1.67;;;;;;;;;;4810365;29;20046;-71
2024/01/01 11:59:12;;;;;;;9.57;1.90;;;;;;;;;;4815224;29;20147;-69
2024/01/01 12:01:39;;;;;;;8.55;1.98;;;;;;;;;;4812838;29;20058;-69
2024/01/01 12:04:07;;;;;;;8.52;1.83;;;;;;;;;;4802026;29;20948;-69
2024/01/01 12:06:33;;;;;;;8.07;1.67;;;;;;;;;;4810524;29;20066;-70
2024/01/01 12:09:10;;;;;;;16.13;6.55;;;;;;;;;;4810467;29;20603;-70
2024/01/01 12:11:37;;;;;;;7.22;2.53;;;;;;;;;;4814064;29;20072;-69
2024/01/01 12:14:04;;;;;;;9.65;2.63;;;;;;;;;;4816347;29;20081;-69
2024/01/01 12:16:31;;;;;;;9.40;3.03;;;;;;;;;;4806072;29;20146;-69
2024/01/01 12:19:09;;;;;;;9.85;2.00;;;;;;;;;;4811099;29;20050;-70
2024/01/01 12:21:43;;;;;;;15.55;2.80;;;;;;;;;;4798803;29;20169;-70
2024/01/01 12:24:13;;;;;;;7.20;1.63;;;;;;;;;;4825264;29;20050;-69
2024/01/01 12:26:40;;;;;;;6.45;1.55;;;;;;;;;;4809219;29;20061;-69
2024/01/01 12:29:07;;;;;;;8.38;1.42;;;;;;;;;;4813341;29;20054;-69
2024/01/01 12:31:33;;;;;;;8.50;1.60;;;;;;;;;;4795935;29;20149;-70
2024/01/01 12:34:00;;;;;;;5.88;1.88;;;;;;;;;;4780358;29;20050;-70
2024/01/01 12:36:26;;;;;;;7.43;1.60;;;;;;;;;;4803618;29;20047;-69
2024/01/01 12:38:53;;;;;;;9.20;2.20;;;;;;;;;;4809631;29;20092;-69
2024/01/01 12:41:20;;;;;;;14.23;2.03;;;;;;;;;;4816401;29;21111;-69
2024/01/01 12:43:47;;;;;;;11.52;2.53;;;;;;;;;;4810660;29;20054;-70
2024/01/01 12:46:14;;;;;;;13.25;2.80;;;;;;;;;;4808090;29;20054;-70
2024/01/01 12:48:46;;;;;;;15.38;3.08;;;;;;;;;;4803203;29;20050;-69
2024/01/01 12:51:15;;;;;;;9.10;2.30;;;;;;;;;;4810911;29;20050;-69
2024/01/01 12:53:41;;;;;;;15.60;2.55;;;;;;;;;;4815439;29;20107;-70
2024/01/01 12:56:08;;;;;;;10.80;2.42;;;;;;;;;;4810458;29;20086;-69
2024/01/01 12:58:34;;;;;;;16.15;3.17;;;;;;;;;;4810502;29;20644;-70
2024/01/01 13:01:01;;;;;;;10.30;2.92;;;;;;;;;;4810963;29;20145;-69
2024/01/01 13:03:27;;;;;;;14.15;3.00;;;;;;;;;;4809257;29;20054;-69
2024/01/01 13:05:54;;;;;;;13.60;1.92;;;;;;;;;;4815720;29;20063;-69
2024/01/01 13:08:20;;;;;;;7.13;1.90;;;;;;;;;;4807582;29;20046;-69
2024/01/01 13:10:47;;;;;;;12.77;2.20;;;;;;;;;;4816837;29;20050;-69
2024/01/01 13:13:14;;;;;;;8.95;2.13;;;;;;;;;;4806391;29;20043;-70
2024/01/01 13:15:40;;;;;;;10.05;2.00;;;;;;;;;;4796492;29;20512;-69
2024/01/01 13:18:06;;;;;;;14.00;2.20;;;;;;;;;;4796255;29;20078;-70
2024/01/01 13:20:33;;;;;;;10.75;2.10;;;;;;;;;;4804102;29;20050;-70
2024/01/01 13:23:00;;;;;;;11.48;2.03;;;;;;;;;;4817111;29;20070;-71
2024/01/01 13:25:26;;;;;;;15.70;2.92;;;;;;;;;;4798538;29;20054;-70
2024/01/01 13:27:53;;;;;;;13.18;2.45;;;;;;;;;;4800170;29;20055;-70
2024/01/01 13:30:19;;;;;;;14.63;2.75;;;;;;;;;;4806960;29;20492;-69
2024/01/01 13:32:45;;;;;;;9.63;2.47;;;;;;;;;;4811370;29;20054;-70
2024/01/01 13:35:15;;;;;;;11.93;2.40;;;;;;;;;;4817444;29;20063;-70
2024/01/01 13:37:42;;;;;;;15.52;3.28;;;;;;;;;;4812017;29;20062;-69
2024/01/01 13:40:08;;;;;;;12.40;2.30;;;;;;;;;;4818975;29;20592;-70
2024/01/01 13:42:35;;;;;;;11.75;3.20;;;;;;;;;;4807617;29;20086;-70
2024/01/01 13:45:01;;;;;;;13.15;3.40;;;;;;;;;;4805865;29;20463;-70
2024/01/01 13:47:28;;;;;;;19.55;2.92;;;;;;;;;;4821086;29;20054;-77
2024/01/01 13:49:55;;;;;;;17.33;4.00;;;;;;;;;;4816672;29;20051;-77
2024/01/01 13:52:21;;;;;;;16.15;3.58;;;;;;;;;;4806920;29;20066;-78
2024/01/01 13:54:48;;;;;;;16.38;3.58;;;;;;;;;;4798611;29;20058;-78
2024/01/01 13:57:14;;;;;;;12.05;2.67;;;;;;;;;;4815834;29;20058;-78
2024/01/01 13:59:41;;;;;;;18.67;3.58;;;;;;;;;;4814548;29;20055;-78
2024/01/01 14:02:07;;;;;;;18.02;3.47;;;;;;;;;;4818374;29;20111;-78
2024/01/01 14:04:34;;;;;;;14.55;2.92;;;;;;;;;;4806528;29;20115;-77
2024/01/01 14:07:00;;;;;;;14.25;3.20;;;;;;;;;;4814145;29;20085;-76
2024/01/01 14:09:27;;;;;;;16.27;4.30;;;;;;;;;;4811235;29;20526;-75
2024/01/01 14:11:53;;;;;;;18.50;3.63;;;;;;;;;;4807962;29;20395;-76
2024/01/01 14:14:19;;;;;;;21.08;2.88;;;;;;;;;;4808839;29;20068;-75
2024/01/01 14:16:46;;;;;;;14.45;3.45;;;;;;;;;;4823620;29;20059;-76
2024/01/01 14:19:14;;;;;;;19.80;3.40;;;;;;;;;;4812092;29;20076;-77
2024/01/01 14:21:41;;;;;;;13.07;2.70;;;;;;;;;;4816467;29;20054;-73
2024/01/01 14:24:09;;;;;;;18.70;2.75;;;;;;;;;;4810798;29;20147;-75
2024/01/01 14:26:35;;;;;;;21.65;2.78;;;;;;;;;;4792001;29;20089;-77
2024/01/01 14:29:02;;;;;;;13.45;2.25;;;;;;;;;;4814716;29;20058;-74
2024/01/01 14:31:28;;;;;;;20.00;2.70;;;;;;;;;;4800113;29;20401;-75
2024/01/01 14:33:55;;;;;;;19.40;3.90;;;;;;;;;;4812968;29;20063;-75
2024/01/01 14:36:22;;;;;;;18.42;2.80;;;;;;;;;;4808999;29;20154;-75
2024/01/01 14:38:49;;;;;;;17.27;2.83;;;;;;;;;;4803281;29;20100;-77